Thedford, NE

8:09 AM CDT on June 23, 2017 (GMT -0500)
Thedford

Weather History for KTIF - January, 2013

Change the Weather History Date:

Saturday, January 19, 2013

  Actual Average (KANW) Record (KANW)
Temperature  
Mean Temperature 38 °F -  
Max Temperature 52 °F 33 °F 61 °F (2014)
Min Temperature 24 °F 13 °F -13 °F (2001)
Degree Days  
Heating Degree Days 27    
Moisture  
Dew Point 21 °F    
Average Humidity 53    
Maximum Humidity 88    
Minimum Humidity 25    
Precipitation  
Precipitation 0.00 in - - ()
Sea Level Pressure  
Sea Level Pressure 30.10 in    
Wind  
Wind Speed 11 mph (NW)    
Max Wind Speed 21 mph    
Max Gust Speed 33 mph    
Visibility 10 miles    
Events      
Averages and records for this station are not official NWS values.
T = Trace of Precipitation, MM = Missing Value Source: NWS Daily Summary

Daily Weather History Graph

Daily Weather History Graph

Search for Another Location

Airport or City:

Trip Planner

Search our weather history database for the weather conditions in past years. The results will help you decide how hot, cold, wet, or windy it might be!

Date:

Astronomy

Jan. 19, 2013 Rise Set
Actual Time 8:05 AM CST 5:41 PM CST
Civil Twilight 7:34 AM CST 6:11 PM CST
Nautical Twilight 7:00 AM CST 6:45 PM CST
Astronomical Twilight 6:27 AM CST 7:19 PM CST
Moon 12:09 PM CST (1/19) 1:40 AM CST (1/19)
Length of Visible Light 10h 36m
Length of Day
9h 35m
First Quarter, 57% of the Moon is Illuminated
Jan 19
First Quarter
Jan 26
Full
Feb 3
Last Quarter
Feb 10
New
Feb 17
First Quarter

Hourly Weather History & Observations

Time (CST) Temp. Windchill Dew Point Humidity Pressure Visibility Wind Dir Wind Speed Gust Speed Precip Events Conditions
12:15 AM 34.0 °F 26.6 °F 22.1 °F 62% 29.91 in 10.0 mi West 9.2 mph - N/A   Clear
12:35 AM 35.1 °F 27.4 °F 22.1 °F 59% 29.91 in 10.0 mi WNW 10.4 mph - N/A   Clear
12:55 AM 36.7 °F 28.9 °F 22.1 °F 56% 29.90 in 10.0 mi West 11.5 mph - N/A   Clear
1:15 AM 38.5 °F 30.7 °F 21.2 °F 50% 29.90 in 10.0 mi WNW 12.7 mph - N/A   Clear
1:35 AM 39.0 °F 30.6 °F 21.0 °F 49% 29.90 in 10.0 mi West 15.0 mph - N/A   Clear
1:55 AM 39.2 °F 31.2 °F 21.0 °F 48% 29.91 in 10.0 mi WNW 13.8 mph - N/A   Clear
2:15 AM 39.2 °F 31.6 °F 20.8 °F 48% 29.91 in 10.0 mi WNW 12.7 mph - N/A   Clear
2:35 AM 38.8 °F 32.1 °F 21.2 °F 49% 29.93 in 10.0 mi WNW 10.4 mph 16.1 mph N/A   Clear
2:55 AM 38.3 °F 31.9 °F 21.2 °F 50% 29.93 in 10.0 mi West 9.2 mph - N/A   Clear
3:15 AM 38.1 °F 32.9 °F 21.4 °F 51% 29.93 in 10.0 mi West 6.9 mph - N/A   Clear
3:35 AM 38.5 °F 30.3 °F 21.6 °F 51% 29.93 in 10.0 mi West 13.8 mph - N/A   Scattered Clouds
3:55 AM 37.4 °F 30.3 °F 21.6 °F 53% 29.94 in 10.0 mi WNW 10.4 mph - N/A   Scattered Clouds
4:15 AM 35.6 °F 28.0 °F 21.6 °F 57% 29.94 in 10.0 mi West 10.4 mph - N/A   Clear
4:35 AM 36.1 °F 28.7 °F 22.1 °F 57% 29.95 in 10.0 mi West 10.4 mph - N/A   Clear
4:55 AM 35.8 °F 27.8 °F 22.1 °F 58% 29.96 in 10.0 mi West 11.5 mph - N/A   Clear
5:15 AM 34.9 °F 26.2 °F 22.1 °F 60% 29.97 in 10.0 mi West 12.7 mph - N/A   Clear
5:35 AM 34.2 °F 25.7 °F 22.1 °F 61% 29.98 in 10.0 mi West 11.5 mph - N/A   Clear
5:55 AM 33.4 °F 24.8 °F 21.9 °F 63% 29.98 in 10.0 mi WNW 11.5 mph - N/A   Clear
7:15 AM 34.7 °F 27.5 °F 20.7 °F 57% 30.02 in 10.0 mi WNW 9.2 mph - N/A   Clear
7:55 AM 34.0 °F 25.5 °F 20.3 °F 57% 30.04 in 10.0 mi West 11.5 mph - N/A   Clear
8:15 AM 32.9 °F 24.7 °F 20.1 °F 59% 30.04 in 10.0 mi West 10.4 mph - N/A   Clear
8:35 AM 33.4 °F 25.4 °F 20.1 °F 58% 30.05 in 10.0 mi WNW 10.4 mph - N/A   Clear
9:35 AM 39.4 °F 31.8 °F 19.9 °F 46% 30.09 in 10.0 mi WNW 12.7 mph - N/A   Clear
9:55 AM 41.0 °F 33.9 °F 19.9 °F 43% 30.10 in 10.0 mi WNW 12.7 mph - N/A   Clear
10:15 AM 43.5 °F 38.9 °F 20.1 °F 39% 30.11 in 10.0 mi WNW 8.1 mph - N/A   Clear
10:35 AM 45.9 °F 40.4 °F 19.4 °F 35% 30.12 in 10.0 mi WNW 11.5 mph - N/A   Clear
10:55 AM 45.9 °F 41.2 °F 19.8 °F 35% 30.12 in 10.0 mi WNW 9.2 mph - N/A   Clear
11:15 AM 48.7 °F - 19.4 °F 31% 30.12 in 10.0 mi NW 16.1 mph 24.2 mph N/A   Clear
11:35 AM 49.1 °F - 18.9 °F 30% 30.12 in 10.0 mi NNW 15.0 mph 24.2 mph N/A   Clear
11:55 AM 50.0 °F - 18.5 °F 29% 30.12 in 10.0 mi NNW 15.0 mph - N/A   Clear
12:15 PM 51.4 °F - 18.9 °F 28% 30.11 in 10.0 mi NW 13.8 mph 19.6 mph N/A   Clear
12:35 PM 52.7 °F - 18.0 °F 25% 30.11 in 10.0 mi NNW 20.7 mph 27.6 mph N/A   Clear
12:55 PM 52.5 °F - 18.3 °F 26% 30.11 in 10.0 mi NW 20.7 mph 26.5 mph N/A   Clear
1:35 PM 52.3 °F - 18.5 °F 26% 30.10 in 10.0 mi NW 16.1 mph 25.3 mph N/A   Clear
1:55 PM 52.3 °F - 18.0 °F 26% 30.11 in 10.0 mi NW 20.7 mph 29.9 mph N/A   Clear
2:15 PM 52.0 °F - 17.6 °F 26% 30.11 in 10.0 mi NW 19.6 mph 33.4 mph N/A   Clear
2:35 PM 51.8 °F - 18.1 °F 27% 30.11 in 10.0 mi NNW 19.6 mph 28.8 mph N/A   Clear
2:55 PM 50.4 °F - 19.8 °F 30% 30.12 in 10.0 mi NNW 18.4 mph 26.5 mph N/A   Clear
3:15 PM 49.6 °F - 20.3 °F 31% 30.13 in 10.0 mi NNW 16.1 mph 25.3 mph N/A   Clear
3:35 PM 48.7 °F - 20.8 °F 33% 30.14 in 10.0 mi NNW 18.4 mph 25.3 mph N/A   Clear
3:55 PM 48.2 °F - 21.7 °F 35% 30.15 in 10.0 mi NNW 18.4 mph 25.3 mph N/A   Clear
4:15 PM 46.4 °F 38.7 °F 22.5 °F 39% 30.15 in 10.0 mi North 20.7 mph 25.3 mph N/A   Clear
4:35 PM 45.5 °F 38.3 °F 23.2 °F 41% 30.17 in 10.0 mi North 17.3 mph 23.0 mph N/A   Clear
4:55 PM 44.1 °F 37.4 °F 22.8 °F 43% 30.17 in 10.0 mi North 13.8 mph 21.9 mph N/A   Clear
5:15 PM 42.1 °F 35.7 °F 22.8 °F 46% 30.19 in 10.0 mi NNW 11.5 mph - N/A   Clear
5:35 PM 39.4 °F 35.2 °F 23.0 °F 52% 30.19 in 10.0 mi NNW 5.8 mph - N/A   Clear
5:55 PM 37.2 °F 32.6 °F 23.4 °F 57% 30.20 in 10.0 mi NNW 5.8 mph - N/A   Clear
6:15 PM 35.1 °F 30.1 °F 23.2 °F 62% 30.20 in 10.0 mi NNW 5.8 mph - N/A   Clear
6:35 PM 33.6 °F 29.4 °F 23.4 °F 66% 30.21 in 10.0 mi NNW 4.6 mph - N/A   Clear
6:55 PM 33.8 °F 30.8 °F 23.9 °F 67% 30.23 in 10.0 mi North 3.5 mph - N/A   Clear
7:15 PM 32.4 °F - 23.7 °F 70% 30.23 in 10.0 mi Calm Calm - N/A   Clear
7:35 PM 31.6 °F - 23.9 °F 73% 30.23 in 10.0 mi Calm Calm - N/A   Clear
7:55 PM 31.6 °F - 23.7 °F 73% 30.24 in 10.0 mi Calm Calm - N/A   Clear
8:15 PM 32.0 °F 28.7 °F 24.3 °F 73% 30.25 in 10.0 mi NE 3.5 mph - N/A   Clear
8:35 PM 32.0 °F - 24.3 °F 73% 30.25 in 10.0 mi Calm Calm - N/A   Clear
8:55 PM 29.8 °F - 23.7 °F 78% 30.25 in 10.0 mi Calm Calm - N/A   Clear
9:15 PM 30.4 °F 26.9 °F 23.9 °F 77% 30.26 in 10.0 mi NNE 3.5 mph - N/A   Clear
9:35 PM 28.0 °F 20.0 °F 24.1 °F 85% 30.26 in 10.0 mi NNE 8.1 mph - N/A   Clear
9:55 PM 27.1 °F 16.9 °F 23.9 °F 88% 30.26 in 10.0 mi NE 11.5 mph - N/A   Clear
10:15 PM 26.2 °F 22.1 °F 23.0 °F 88% 30.25 in 10.0 mi East 3.5 mph - N/A   Clear
10:35 PM 25.7 °F 17.1 °F 22.1 °F 86% 30.25 in 10.0 mi ENE 8.1 mph - N/A   Clear
10:55 PM 25.0 °F 19.3 °F 20.7 °F 84% 30.26 in 10.0 mi ENE 4.6 mph - N/A   Clear
11:15 PM 24.8 °F 20.5 °F 19.6 °F 81% 30.26 in 10.0 mi East 3.5 mph - N/A   Scattered Clouds
11:35 PM 24.4 °F - 18.7 °F 79% 30.26 in 10.0 mi Calm Calm - N/A   Scattered Clouds